Helas — C4AZ2 — position and weather

sailwx.info

Track history (hours):
 
Tides and Currents Weather Stations Pressure Air Temp Water Temp Dewpoint Dewpoint Depression Visibility Wind Speed Wind Dir Waves Ship Positions

Helas

Last reported at 2016-Feb-06 01:20 UTC. Time now 2016-Feb-11 10:49 UTC.
Position N 43°55' W 003°22'.

Length 89 m; draft 5.6 m.

Type: Cargo ship. MMSI: 210031000.

Date/timePositionNaut miles runAvg speedWind from/ knotsBaromVisibWave heightAir tempDewpointWater temp
2016-Feb-06 01:20N 43°55' W 003°22'210 8.4
2016-Feb-05 00:24N 47°12' W 005°07'8 8.6
2016-Feb-04 23:26N 47°20' W 005°11'190 6.8
2016-Feb-03 19:24N 50°18' W 003°30'8 9.0
2016-Feb-03 18:33N 50°25' W 003°27'6 5.7
2016-Feb-03 17:31N 50°31' W 003°28'0 0.0
2016-Feb-03 16:31N 50°31' W 003°28'0 0.0
2016-Feb-03 15:31N 50°31' W 003°28'0 0.0
2016-Feb-03 14:31N 50°31' W 003°28'0 0.0
2016-Feb-03 13:31N 50°31' W 003°28'0 0.0
2016-Feb-03 12:31N 50°31' W 003°28'0 0.0
2016-Feb-03 11:31N 50°31' W 003°28'0 0.0
2016-Feb-03 10:31N 50°31' W 003°28'0 0.0
2016-Feb-03 09:31N 50°31' W 003°28'0 0.0
2016-Feb-03 08:31N 50°31' W 003°28'0 0.0
2016-Feb-03 07:31N 50°31' W 003°28'0 0.1
2016-Feb-03 06:31N 50°31' W 003°28'4 4.2
2016-Feb-03 05:33N 50°31' W 003°22'5 4.8
2016-Feb-03 04:33N 50°30' W 003°14'4 4.4
2016-Feb-03 03:33N 50°30' W 003°07'43 7.0
2016-Feb-02 21:21N 50°29' W 001°59'6 7.6
2016-Feb-02 20:33N 50°29' W 001°50'19 7.6
2016-Feb-02 18:03N 50°32' W 001°20'4 7.2
2016-Feb-02 17:30N 50°33' W 001°14'6 6.9
2016-Feb-02 16:33N 50°34' W 001°04'6 6.1
2016-Feb-02 15:33N 50°35' W 000°54'6 5.5
2016-Feb-02 14:33N 50°35' W 000°46'5 5.5
2016-Feb-02 13:33N 50°35' W 000°37'6 6.0
2016-Feb-02 12:33N 50°35' W 000°27'7 6.6
2016-Feb-02 11:33N 50°35' W 000°17'7 6.9
2016-Feb-02 10:31N 50°33' W 000°06'7 7.1
2016-Feb-02 09:33N 50°34' E 000°05'8 7.6
2016-Feb-02 08:33N 50°36' E 000°16'7 7.4
2016-Feb-02 07:33N 50°38' E 000°27'7 6.9
2016-Feb-02 06:33N 50°41' E 000°37'6 6.4
2016-Feb-02 05:33N 50°44' E 000°46'6 6.0
2016-Feb-02 04:32N 50°48' E 000°54'12 6.0
2016-Feb-02 02:33N 50°55' E 001°09'7 6.7
2016-Feb-02 01:33N 50°59' E 001°17'7 7.0
2016-Feb-02 00:33N 51°04' E 001°25'7 7.0
2016-Feb-01 23:33N 51°08' E 001°34'7 6.9
2016-Feb-01 22:33N 51°15' E 001°38'8 7.6
2016-Feb-01 21:33N 51°22' E 001°34'5 4.5
2016-Feb-01 20:31N 51°24' E 001°27'0 0.0
2016-Feb-01 19:31N 51°24' E 001°27'0 0.1
2016-Feb-01 18:31N 51°24' E 001°27'0 0.1
2016-Feb-01 17:31N 51°24' E 001°27'0 0.1
2016-Feb-01 16:31N 51°24' E 001°27'0 0.0
2016-Feb-01 15:31N 51°24' E 001°27'0 0.0
2016-Feb-01 14:31N 51°24' E 001°27'0 0.2
2016-Feb-01 13:31N 51°24' E 001°27'0 0.0
2016-Feb-01 12:31N 51°24' E 001°27'0 0.0
2016-Feb-01 11:31N 51°24' E 001°27'0 0.0
2016-Feb-01 10:31N 51°24' E 001°27'0 0.0
2016-Feb-01 09:31N 51°24' E 001°27'0 0.0
2016-Feb-01 08:31N 51°24' E 001°27'0 0.0
2016-Feb-01 07:31N 51°24' E 001°27'0 0.0
2016-Feb-01 06:31N 51°24' E 001°27'0 0.1
2016-Feb-01 05:34N 51°24' E 001°27'0 0.1
2016-Feb-01 04:33N 51°24' E 001°27'0 0.0
2016-Feb-01 03:33N 51°24' E 001°27'0 0.0
2016-Feb-01 02:33N 51°24' E 001°27'0 0.1
2016-Feb-01 01:33N 51°24' E 001°27'0 0.0
2016-Feb-01 00:33N 51°24' E 001°27'0 0.0
2016-Jan-31 23:33N 51°24' E 001°27'0 0.0
2016-Jan-31 22:33N 51°24' E 001°27'0 0.0
2016-Jan-31 21:33N 51°24' E 001°27'0 0.0
2016-Jan-31 20:33N 51°24' E 001°27'0 0.0
2016-Jan-31 19:33N 51°24' E 001°27'0 0.0
2016-Jan-31 18:33N 51°24' E 001°27'0 0.1
2016-Jan-31 17:33N 51°24' E 001°27'0 0.1
2016-Jan-31 16:33N 51°24' E 001°27'0 0.0
2016-Jan-31 15:33N 51°24' E 001°27'0 0.0
2016-Jan-31 14:33N 51°24' E 001°27'0 0.1
2016-Jan-31 13:33N 51°24' E 001°27'5 5.4
2016-Jan-31 12:33N 51°23' E 001°36'9 9.3
2016-Jan-31 11:33N 51°27' E 001°50'10 9.9
2016-Jan-31 10:33N 51°33' E 002°02'9 8.9
2016-Jan-31 09:33N 51°40' E 002°12'80 5.6
2016-Jan-30 19:21N 52°30' E 003°52'8 4.5
2016-Jan-30 17:32N 52°31' E 004°05'6 4.9
2016-Jan-30 16:24N 52°31' E 004°15'5 5.8
2016-Jan-30 15:33N 52°30' E 004°22'7 6.8
2016-Jan-30 14:34N 52°28' E 004°33'2 2.0
2016-Jan-30 13:34N 52°28' E 004°36'0 0.0
2016-Jan-30 12:29N 52°28' E 004°36'0 0.0
2016-Jan-30 11:32N 52°28' E 004°36'0 0.0
2016-Jan-30 10:32N 52°28' E 004°36'0 0.0
2016-Jan-30 09:32N 52°28' E 004°36'0 0.0
2016-Jan-30 08:32N 52°28' E 004°36'0 0.0
2016-Jan-30 07:29N 52°28' E 004°36'0 0.0
2016-Jan-30 06:32N 52°28' E 004°36'0 0.0
2016-Jan-30 05:31N 52°28' E 004°36'0 0.0
2016-Jan-30 04:31N 52°28' E 004°36'0 0.0
2016-Jan-30 03:31N 52°28' E 004°36'0 0.0
2016-Jan-30 02:31N 52°28' E 004°36'0 0.0
2016-Jan-30 01:28N 52°28' E 004°36'0 0.0
2016-Jan-30 00:31N 52°28' E 004°36'0 0.0
2016-Jan-29 23:31N 52°28' E 004°36'0 0.0
2016-Jan-29 22:31N 52°28' E 004°36'0 0.0
2016-Jan-29 21:31N 52°28' E 004°36'0 0.0
2016-Jan-29 20:28N 52°28' E 004°36'0 0.0
2016-Jan-29 19:31N 52°28' E 004°36'0 0.0
2016-Jan-29 18:31N 52°28' E 004°36'0 0.0
2016-Jan-29 17:31N 52°28' E 004°36'0 0.0
2016-Jan-29 16:31N 52°28' E 004°36'0 0.0
2016-Jan-29 15:31N 52°28' E 004°36'0 0.0
2016-Jan-29 14:31N 52°28' E 004°36'0 0.0
2016-Jan-29 13:31N 52°28' E 004°36'0 0.0
2016-Jan-29 12:31N 52°28' E 004°36'0 0.0
2016-Jan-29 11:31N 52°28' E 004°36'0 0.0
2016-Jan-29 10:31N 52°28' E 004°36'0 0.0
2016-Jan-29 08:31N 52°28' E 004°36'0 0.0
2016-Jan-29 07:31N 52°28' E 004°36'0 0.0
2016-Jan-29 06:28N 52°28' E 004°36'0 0.1
2016-Jan-29 05:32N 52°28' E 004°36'0 0.0
2016-Jan-29 04:32N 52°28' E 004°36'0 0.0
2016-Jan-29 03:32N 52°28' E 004°36'0 0.0
2016-Jan-29 02:32N 52°28' E 004°36'0 0.0
2016-Jan-29 01:32N 52°28' E 004°36'0 0.0
2016-Jan-29 00:32N 52°28' E 004°36'0 0.0
2016-Jan-28 23:32N 52°28' E 004°36'0 0.0
2016-Jan-28 22:32N 52°28' E 004°36'0 0.0
2016-Jan-28 21:32N 52°28' E 004°36'0 0.0
2016-Jan-28 20:32N 52°28' E 004°36'0 0.0
2016-Jan-28 19:32N 52°28' E 004°36'0 0.0
2016-Jan-28 18:32N 52°28' E 004°36'0 0.0
2016-Jan-28 17:32N 52°28' E 004°36'0 0.0
2016-Jan-28 16:31N 52°28' E 004°36'5 5.3
2016-Jan-28 15:33N 52°28' E 004°28'7 7.0
2016-Jan-28 14:33N 52°27' E 004°17'8 7.9
2016-Jan-28 13:33N 52°25' E 004°04'3 2.7
2016-Jan-28 12:33N 52°25' E 003°60'4 3.7
2016-Jan-28 11:33N 52°26' E 004°05'7 7.2
2016-Jan-28 10:33N 52°21' E 003°57'8 8.3
2016-Jan-28 09:33N 52°13' E 003°56'9 8.7
2016-Jan-28 08:33N 52°05' E 003°55'8 7.6
2016-Jan-28 07:33N 51°59' E 004°04'1110.6
2016-Jan-28 06:33N 51°54' E 004°18'6 6.1
2016-Jan-28 05:33N 51°54' E 004°28'0 0.0
2016-Jan-28 04:32N 51°54' E 004°28'0 0.0
2016-Jan-28 03:32N 51°54' E 004°28'0 0.0
2016-Jan-28 02:32N 51°54' E 004°28'0 0.0
2016-Jan-28 01:32N 51°54' E 004°28'0 0.0
2016-Jan-28 00:32N 51°54' E 004°28'0 0.0
2016-Jan-27 23:32N 51°54' E 004°28'0 0.0
2016-Jan-27 22:32N 51°54' E 004°28'0 0.0
2016-Jan-27 21:32N 51°54' E 004°28'0 0.0
2016-Jan-27 20:32N 51°54' E 004°28'0 0.0
2016-Jan-27 19:32N 51°54' E 004°28'0 0.0
2016-Jan-27 18:32N 51°54' E 004°28'0 0.0
2016-Jan-27 17:32N 51°54' E 004°28'0 0.0
2016-Jan-27 16:32N 51°54' E 004°28'0 0.0
2016-Jan-27 15:32N 51°54' E 004°28'0 0.0
2016-Jan-27 14:32N 51°54' E 004°28'0 0.0
2016-Jan-27 13:32N 51°54' E 004°28'0 0.0
2016-Jan-27 12:32N 51°54' E 004°28'0 0.0
2016-Jan-27 11:32N 51°54' E 004°28'0 0.0
2016-Jan-27 10:31N 51°54' E 004°28'0 0.0
2016-Jan-27 09:31N 51°54' E 004°28'0 0.0
2016-Jan-27 08:31N 51°54' E 004°28'0 0.0
2016-Jan-27 07:31N 51°54' E 004°28'0 0.0
2016-Jan-27 06:31N 51°54' E 004°28'0 0.0
2016-Jan-27 05:31N 51°54' E 004°28'0 0.0
2016-Jan-27 04:31N 51°54' E 004°28'0 0.0
2016-Jan-27 03:31N 51°54' E 004°28'2 2.1
2016-Jan-27 02:33N 51°54' E 004°25'0 0.1
2016-Jan-27 01:33N 51°54' E 004°25'  
Track history (hours):
 
Tides and Currents Weather Stations Pressure Air Temp Water Temp Dewpoint Dewpoint Depression Visibility Wind Speed Wind Dir Waves Ship Positions

Helas

Last reported at 2016-Feb-06 01:20 UTC. Time now 2016-Feb-11 10:49 UTC.
Position N 43°55' W 003°22'.

Length 89 m; draft 5.6 m.

Type: Cargo ship. MMSI: 210031000.

Date/timePositionNaut miles runAvg speedWind from/ knotsBaromVisibWave heightAir tempDewpointWater temp
2016-Feb-06 01:20N 43°55' W 003°22'210 8.4
2016-Feb-05 00:24N 47°12' W 005°07'8 8.6
2016-Feb-04 23:26N 47°20' W 005°11'190 6.8
2016-Feb-03 19:24N 50°18' W 003°30'8 9.0
2016-Feb-03 18:33N 50°25' W 003°27'6 5.7
2016-Feb-03 17:31N 50°31' W 003°28'0 0.0
2016-Feb-03 16:31N 50°31' W 003°28'0 0.0
2016-Feb-03 15:31N 50°31' W 003°28'0 0.0
2016-Feb-03 14:31N 50°31' W 003°28'0 0.0
2016-Feb-03 13:31N 50°31' W 003°28'0 0.0
2016-Feb-03 12:31N 50°31' W 003°28'0 0.0
2016-Feb-03 11:31N 50°31' W 003°28'0 0.0
2016-Feb-03 10:31N 50°31' W 003°28'0 0.0
2016-Feb-03 09:31N 50°31' W 003°28'0 0.0
2016-Feb-03 08:31N 50°31' W 003°28'0 0.0
2016-Feb-03 07:31N 50°31' W 003°28'0 0.1
2016-Feb-03 06:31N 50°31' W 003°28'4 4.2
2016-Feb-03 05:33N 50°31' W 003°22'5 4.8
2016-Feb-03 04:33N 50°30' W 003°14'4 4.4
2016-Feb-03 03:33N 50°30' W 003°07'43 7.0
2016-Feb-02 21:21N 50°29' W 001°59'6 7.6
2016-Feb-02 20:33N 50°29' W 001°50'19 7.6
2016-Feb-02 18:03N 50°32' W 001°20'4 7.2
2016-Feb-02 17:30N 50°33' W 001°14'6 6.9
2016-Feb-02 16:33N 50°34' W 001°04'6 6.1
2016-Feb-02 15:33N 50°35' W 000°54'6 5.5
2016-Feb-02 14:33N 50°35' W 000°46'5 5.5
2016-Feb-02 13:33N 50°35' W 000°37'6 6.0
2016-Feb-02 12:33N 50°35' W 000°27'7 6.6
2016-Feb-02 11:33N 50°35' W 000°17'7 6.9
2016-Feb-02 10:31N 50°33' W 000°06'7 7.1
2016-Feb-02 09:33N 50°34' E 000°05'8 7.6
2016-Feb-02 08:33N 50°36' E 000°16'7 7.4
2016-Feb-02 07:33N 50°38' E 000°27'7 6.9
2016-Feb-02 06:33N 50°41' E 000°37'6 6.4
2016-Feb-02 05:33N 50°44' E 000°46'6 6.0
2016-Feb-02 04:32N 50°48' E 000°54'12 6.0
2016-Feb-02 02:33N 50°55' E 001°09'7 6.7
2016-Feb-02 01:33N 50°59' E 001°17'7 7.0
2016-Feb-02 00:33N 51°04' E 001°25'7 7.0
2016-Feb-01 23:33N 51°08' E 001°34'7 6.9
2016-Feb-01 22:33N 51°15' E 001°38'8 7.6
2016-Feb-01 21:33N 51°22' E 001°34'5 4.5
2016-Feb-01 20:31N 51°24' E 001°27'0 0.0
2016-Feb-01 19:31N 51°24' E 001°27'0 0.1
2016-Feb-01 18:31N 51°24' E 001°27'0 0.1
2016-Feb-01 17:31N 51°24' E 001°27'0 0.1
2016-Feb-01 16:31N 51°24' E 001°27'0 0.0
2016-Feb-01 15:31N 51°24' E 001°27'0 0.0
2016-Feb-01 14:31N 51°24' E 001°27'0 0.2
2016-Feb-01 13:31N 51°24' E 001°27'0 0.0
2016-Feb-01 12:31N 51°24' E 001°27'0 0.0
2016-Feb-01 11:31N 51°24' E 001°27'0 0.0
2016-Feb-01 10:31N 51°24' E 001°27'0 0.0
2016-Feb-01 09:31N 51°24' E 001°27'0 0.0
2016-Feb-01 08:31N 51°24' E 001°27'0 0.0
2016-Feb-01 07:31N 51°24' E 001°27'0 0.0
2016-Feb-01 06:31N 51°24' E 001°27'0 0.1
2016-Feb-01 05:34N 51°24' E 001°27'0 0.1
2016-Feb-01 04:33N 51°24' E 001°27'0 0.0
2016-Feb-01 03:33N 51°24' E 001°27'0 0.0
2016-Feb-01 02:33N 51°24' E 001°27'0 0.1
2016-Feb-01 01:33N 51°24' E 001°27'0 0.0
2016-Feb-01 00:33N 51°24' E 001°27'0 0.0
2016-Jan-31 23:33N 51°24' E 001°27'0 0.0
2016-Jan-31 22:33N 51°24' E 001°27'0 0.0
2016-Jan-31 21:33N 51°24' E 001°27'0 0.0
2016-Jan-31 20:33N 51°24' E 001°27'0 0.0
2016-Jan-31 19:33N 51°24' E 001°27'0 0.0
2016-Jan-31 18:33N 51°24' E 001°27'0 0.1
2016-Jan-31 17:33N 51°24' E 001°27'0 0.1
2016-Jan-31 16:33N 51°24' E 001°27'0 0.0
2016-Jan-31 15:33N 51°24' E 001°27'0 0.0
2016-Jan-31 14:33N 51°24' E 001°27'0 0.1
2016-Jan-31 13:33N 51°24' E 001°27'5 5.4
2016-Jan-31 12:33N 51°23' E 001°36'9 9.3
2016-Jan-31 11:33N 51°27' E 001°50'10 9.9
2016-Jan-31 10:33N 51°33' E 002°02'9 8.9
2016-Jan-31 09:33N 51°40' E 002°12'80 5.6
2016-Jan-30 19:21N 52°30' E 003°52'8 4.5
2016-Jan-30 17:32N 52°31' E 004°05'6 4.9
2016-Jan-30 16:24N 52°31' E 004°15'5 5.8
2016-Jan-30 15:33N 52°30' E 004°22'7 6.8
2016-Jan-30 14:34N 52°28' E 004°33'2 2.0
2016-Jan-30 13:34N 52°28' E 004°36'0 0.0
2016-Jan-30 12:29N 52°28' E 004°36'0 0.0
2016-Jan-30 11:32N 52°28' E 004°36'0 0.0
2016-Jan-30 10:32N 52°28' E 004°36'0 0.0
2016-Jan-30 09:32N 52°28' E 004°36'0 0.0
2016-Jan-30 08:32N 52°28' E 004°36'0 0.0
2016-Jan-30 07:29N 52°28' E 004°36'0 0.0
2016-Jan-30 06:32N 52°28' E 004°36'0 0.0
2016-Jan-30 05:31N 52°28' E 004°36'0 0.0
2016-Jan-30 04:31N 52°28' E 004°36'0 0.0
2016-Jan-30 03:31N 52°28' E 004°36'0 0.0
2016-Jan-30 02:31N 52°28' E 004°36'0 0.0
2016-Jan-30 01:28N 52°28' E 004°36'0 0.0
2016-Jan-30 00:31N 52°28' E 004°36'0 0.0
2016-Jan-29 23:31N 52°28' E 004°36'0 0.0
2016-Jan-29 22:31N 52°28' E 004°36'0 0.0
2016-Jan-29 21:31N 52°28' E 004°36'0 0.0
2016-Jan-29 20:28N 52°28' E 004°36'0 0.0
2016-Jan-29 19:31N 52°28' E 004°36'0 0.0
2016-Jan-29 18:31N 52°28' E 004°36'0 0.0
2016-Jan-29 17:31N 52°28' E 004°36'0 0.0
2016-Jan-29 16:31N 52°28' E 004°36'0 0.0
2016-Jan-29 15:31N 52°28' E 004°36'0 0.0
2016-Jan-29 14:31N 52°28' E 004°36'0 0.0
2016-Jan-29 13:31N 52°28' E 004°36'0 0.0
2016-Jan-29 12:31N 52°28' E 004°36'0 0.0
2016-Jan-29 11:31N 52°28' E 004°36'0 0.0
2016-Jan-29 10:31N 52°28' E 004°36'0 0.0
2016-Jan-29 08:31N 52°28' E 004°36'0 0.0
2016-Jan-29 07:31N 52°28' E 004°36'0 0.0
2016-Jan-29 06:28N 52°28' E 004°36'0 0.1
2016-Jan-29 05:32N 52°28' E 004°36'0 0.0
2016-Jan-29 04:32N 52°28' E 004°36'0 0.0
2016-Jan-29 03:32N 52°28' E 004°36'0 0.0
2016-Jan-29 02:32N 52°28' E 004°36'0 0.0
2016-Jan-29 01:32N 52°28' E 004°36'0 0.0
2016-Jan-29 00:32N 52°28' E 004°36'0 0.0
2016-Jan-28 23:32N 52°28' E 004°36'0 0.0
2016-Jan-28 22:32N 52°28' E 004°36'0 0.0
2016-Jan-28 21:32N 52°28' E 004°36'0 0.0
2016-Jan-28 20:32N 52°28' E 004°36'0 0.0
2016-Jan-28 19:32N 52°28' E 004°36'0 0.0
2016-Jan-28 18:32N 52°28' E 004°36'0 0.0
2016-Jan-28 17:32N 52°28' E 004°36'0 0.0
2016-Jan-28 16:31N 52°28' E 004°36'5 5.3
2016-Jan-28 15:33N 52°28' E 004°28'7 7.0
2016-Jan-28 14:33N 52°27' E 004°17'8 7.9
2016-Jan-28 13:33N 52°25' E 004°04'3 2.7
2016-Jan-28 12:33N 52°25' E 003°60'4 3.7
2016-Jan-28 11:33N 52°26' E 004°05'7 7.2
2016-Jan-28 10:33N 52°21' E 003°57'8 8.3
2016-Jan-28 09:33N 52°13' E 003°56'9 8.7
2016-Jan-28 08:33N 52°05' E 003°55'8 7.6
2016-Jan-28 07:33N 51°59' E 004°04'1110.6
2016-Jan-28 06:33N 51°54' E 004°18'6 6.1
2016-Jan-28 05:33N 51°54' E 004°28'0 0.0
2016-Jan-28 04:32N 51°54' E 004°28'0 0.0
2016-Jan-28 03:32N 51°54' E 004°28'0 0.0
2016-Jan-28 02:32N 51°54' E 004°28'0 0.0
2016-Jan-28 01:32N 51°54' E 004°28'0 0.0
2016-Jan-28 00:32N 51°54' E 004°28'0 0.0
2016-Jan-27 23:32N 51°54' E 004°28'0 0.0
2016-Jan-27 22:32N 51°54' E 004°28'0 0.0
2016-Jan-27 21:32N 51°54' E 004°28'0 0.0
2016-Jan-27 20:32N 51°54' E 004°28'0 0.0
2016-Jan-27 19:32N 51°54' E 004°28'0 0.0
2016-Jan-27 18:32N 51°54' E 004°28'0 0.0
2016-Jan-27 17:32N 51°54' E 004°28'0 0.0
2016-Jan-27 16:32N 51°54' E 004°28'0 0.0
2016-Jan-27 15:32N 51°54' E 004°28'0 0.0
2016-Jan-27 14:32N 51°54' E 004°28'0 0.0
2016-Jan-27 13:32N 51°54' E 004°28'0 0.0
2016-Jan-27 12:32N 51°54' E 004°28'0 0.0
2016-Jan-27 11:32N 51°54' E 004°28'0 0.0
2016-Jan-27 10:31N 51°54' E 004°28'0 0.0
2016-Jan-27 09:31N 51°54' E 004°28'0 0.0
2016-Jan-27 08:31N 51°54' E 004°28'0 0.0
2016-Jan-27 07:31N 51°54' E 004°28'0 0.0
2016-Jan-27 06:31N 51°54' E 004°28'0 0.0
2016-Jan-27 05:31N 51°54' E 004°28'0 0.0
2016-Jan-27 04:31N 51°54' E 004°28'0 0.0
2016-Jan-27 03:31N 51°54' E 004°28'2 2.1
2016-Jan-27 02:33N 51°54' E 004°25'0 0.1
2016-Jan-27 01:33N 51°54' E 004°25'  

Dump ship's entire track history